Time;durP1;ratioP1;P1;durP2;ratioP2;P2;SDS_P1;SDS_P2;PMS_P1;PMS_P2;Temp;Humidity;BMP_temperature;BMP_pressure;BME280_temperature;BME280_humidity;BME280_pressure;Samples;Min_cycle;Max_cycle;Signal;HPM_P1;HPM_P2
2022/02/23 00:01:19;;;;;;;5.15;0.57;;;6.40;94.40;;;;;;5033654;28;20103;-73
2022/02/23 00:03:46;;;;;;;4.05;1.30;;;6.40;94.30;;;;;;5033770;28;20040;-73
2022/02/23 00:06:13;;;;;;;4.88;0.80;;;6.40;94.60;;;;;;5033728;28;20123;-72
2022/02/23 00:08:40;;;;;;;4.53;0.70;;;6.40;94.30;;;;;;5033674;28;20036;-73
2022/02/23 00:11:07;;;;;;;5.65;0.70;;;6.40;94.30;;;;;;5019852;28;20451;-73
2022/02/23 00:13:35;;;;;;;8.13;1.10;;;6.40;94.30;;;;;;5053492;28;20056;-72
2022/02/23 00:16:02;;;;;;;4.63;0.60;;;6.40;94.50;;;;;;5010137;28;20048;-72
2022/02/23 00:18:29;;;;;;;4.93;0.43;;;6.40;94.20;;;;;;5058370;28;20045;-72
2022/02/23 00:20:56;;;;;;;2.22;0.50;;;6.30;94.20;;;;;;5040461;28;20047;-77
2022/02/23 00:23:23;;;;;;;3.45;0.40;;;6.30;94.20;;;;;;5042274;28;20787;-77
2022/02/23 00:25:50;;;;;;;3.42;0.70;;;6.30;94.30;;;;;;5056881;28;20123;-77
2022/02/23 00:28:18;;;;;;;8.32;0.98;;;6.20;94.30;;;;;;5054954;28;20052;-77
2022/02/23 00:30:45;;;;;;;5.60;0.60;;;6.20;94.30;;;;;;5056259;28;20125;-77
2022/02/23 00:33:12;;;;;;;5.63;0.75;;;6.20;94.30;;;;;;5055964;28;20144;-77
2022/02/23 00:35:39;;;;;;;4.63;0.60;;;6.10;94.30;;;;;;5038562;28;20075;-77
2022/02/23 00:38:06;;;;;;;2.42;0.40;;;6.10;94.30;;;;;;5038253;28;20489;-78
2022/02/23 00:40:33;;;;;;;2.92;0.50;;;6.10;94.40;;;;;;5055890;28;20087;-77
2022/02/23 00:43:00;;;;;;;5.70;0.70;;;6.10;94.40;;;;;;5055900;28;20389;-77
2022/02/23 00:45:27;;;;;;;2.97;0.47;;;6.00;94.40;;;;;;5055906;28;20437;-77
2022/02/23 00:47:54;;;;;;;1.77;0.32;;;6.00;94.40;;;;;;5055938;28;20124;-77
2022/02/23 00:50:21;;;;;;;4.13;0.45;;;6.00;94.40;;;;;;5055875;28;20076;-77
2022/02/23 00:52:51;;;;;;;4.97;0.47;;;5.90;94.40;;;;;;5038598;28;20472;-77
2022/02/23 00:55:18;;;;;;;6.05;0.95;;;5.90;94.40;;;;;;5037876;28;20052;-77
2022/02/23 00:57:45;;;;;;;3.92;0.73;;;5.90;94.40;;;;;;5055629;28;20041;-77
2022/02/23 01:00:12;;;;;;;3.47;0.65;;;5.90;94.40;;;;;;5037867;28;20079;-77
2022/02/23 01:02:40;;;;;;;5.78;0.75;;;5.90;94.40;;;;;;5005498;28;20083;-77
2022/02/23 01:05:08;;;;;;;4.10;0.57;;;5.80;94.40;;;;;;5038091;28;20795;-77
2022/02/23 01:07:35;;;;;;;5.95;0.65;;;5.80;94.40;;;;;;5036536;28;20044;-73
2022/02/23 01:10:05;;;;;;;4.50;0.50;;;5.80;94.40;;;;;;5053146;28;20059;-72
2022/02/23 01:12:32;;;;;;;4.30;0.70;;;5.80;94.50;;;;;;5036373;28;20068;-73
2022/02/23 01:15:00;;;;;;;4.50;0.50;;;5.70;94.40;;;;;;5036740;28;20072;-73
2022/02/23 01:17:27;;;;;;;3.65;0.80;;;5.70;94.40;;;;;;5036591;28;20390;-73
2022/02/23 01:19:54;;;;;;;7.65;0.77;;;5.70;94.40;;;;;;5020064;28;20045;-73
2022/02/23 01:22:21;;;;;;;6.78;1.00;;;5.70;94.40;;;;;;5054303;28;20037;-73
2022/02/23 01:24:48;;;;;;;2.42;0.57;;;5.60;94.40;;;;;;5035883;28;20041;-72
2022/02/23 01:27:15;;;;;;;4.47;1.13;;;5.60;94.40;;;;;;5019907;28;20137;-72
2022/02/23 01:29:42;;;;;;;3.90;0.50;;;5.60;94.40;;;;;;5019760;28;20045;-73
2022/02/23 01:32:09;;;;;;;2.78;0.73;;;5.50;94.50;;;;;;5043780;28;20048;-73
2022/02/23 01:34:36;;;;;;;4.57;0.40;;;5.50;94.50;;;;;;5056239;28;20037;-72
2022/02/23 01:37:04;;;;;;;5.47;0.60;;;5.50;94.50;;;;;;5073872;28;20070;-72
2022/02/23 01:39:30;;;;;;;4.13;0.63;;;5.50;94.50;;;;;;5073575;28;20044;-72
2022/02/23 01:41:58;;;;;;;4.65;0.50;;;5.50;94.60;;;;;;5073698;28;20584;-73
2022/02/23 01:44:25;;;;;;;8.50;0.40;;;5.50;94.60;;;;;;5039183;28;20403;-72
2022/02/23 01:46:52;;;;;;;3.80;0.50;;;5.40;94.60;;;;;;5073681;28;20128;-72
2022/02/23 01:49:19;;;;;;;7.70;0.98;;;5.40;94.50;;;;;;5056020;28;20447;-73
2022/02/23 01:51:46;;;;;;;5.10;0.70;;;5.40;94.80;;;;;;5073625;28;20037;-73
2022/02/23 01:54:13;;;;;;;5.45;0.70;;;5.40;94.60;;;;;;5038941;28;20044;-72
2022/02/23 01:56:40;;;;;;;4.00;0.50;;;5.40;94.60;;;;;;5073492;28;20074;-72
2022/02/23 01:59:09;;;;;;;6.22;0.75;;;5.40;94.60;;;;;;5039239;28;20051;-72
2022/02/23 02:01:36;;;;;;;2.72;0.40;;;5.40;94.60;;;;;;5055649;28;20037;-73
2022/02/23 02:04:03;;;;;;;3.70;0.52;;;5.30;94.60;;;;;;5073277;28;20476;-72
2022/02/23 02:06:30;;;;;;;5.03;1.05;;;5.40;94.60;;;;;;5055491;28;20113;-72
2022/02/23 02:08:57;;;;;;;3.85;1.30;;;5.40;94.60;;;;;;5055456;28;20102;-72
2022/02/23 02:11:24;;;;;;;2.67;0.60;;;5.40;94.60;;;;;;5039033;28;20060;-73
2022/02/23 02:13:51;;;;;;;4.50;0.45;;;5.40;94.60;;;;;;5072953;28;20063;-72
2022/02/23 02:16:18;;;;;;;4.53;0.82;;;5.30;94.60;;;;;;5073116;28;20101;-72
2022/02/23 02:18:46;;;;;;;3.10;0.50;;;5.30;94.60;;;;;;5073012;28;20125;-72
2022/02/23 02:21:14;;;;;;;2.08;0.40;;;5.30;94.60;;;;;;5073001;28;20070;-72
2022/02/23 02:23:44;;;;;;;4.97;0.93;;;5.30;94.60;;;;;;5038611;28;20111;-73
2022/02/23 02:26:11;;;;;;;3.40;0.47;;;5.30;94.70;;;;;;5072638;28;20447;-72
2022/02/23 02:28:38;;;;;;;4.70;0.93;;;5.20;94.60;;;;;;5072802;28;20072;-72
2022/02/23 02:31:05;;;;;;;3.17;0.57;;;5.20;94.60;;;;;;5072795;28;20550;-73
2022/02/23 02:33:32;;;;;;;2.28;0.25;;;5.20;94.60;;;;;;5053624;28;20068;-73
2022/02/23 02:35:58;;;;;;;3.58;0.30;;;5.10;94.60;;;;;;5052761;28;20133;-72
2022/02/23 02:38:25;;;;;;;4.00;0.40;;;5.10;94.70;;;;;;5034440;28;20041;-72
2022/02/23 02:40:52;;;;;;;4.65;1.05;;;5.00;94.70;;;;;;5034776;28;20433;-72
2022/02/23 02:43:21;;;;;;;5.60;0.82;;;5.00;95.00;;;;;;5034536;28;20111;-72
2022/02/23 02:45:48;;;;;;;4.45;0.68;;;5.00;94.80;;;;;;5052730;28;20044;-72
2022/02/23 02:48:16;;;;;;;4.85;0.82;;;5.00;94.80;;;;;;5034646;28;20417;-72
2022/02/23 02:50:44;;;;;;;3.92;0.40;;;5.00;94.80;;;;;;5034473;28;20083;-72
2022/02/23 02:53:11;;;;;;;2.78;0.43;;;4.90;94.80;;;;;;5052361;28;20041;-72
2022/02/23 02:55:38;;;;;;;4.78;0.75;;;4.90;94.80;;;;;;5053308;28;20049;-73
2022/02/23 02:58:05;;;;;;;1.98;0.35;;;4.90;94.80;;;;;;5019475;28;20090;-72
2022/02/23 03:00:32;;;;;;;3.08;0.73;;;4.90;94.80;;;;;;5035600;28;20069;-73
2022/02/23 03:02:59;;;;;;;3.80;0.43;;;4.80;94.80;;;;;;5053270;28;20038;-72
2022/02/23 03:05:29;;;;;;;5.38;0.50;;;4.80;94.80;;;;;;5035617;28;20094;-73
2022/02/23 03:07:56;;;;;;;2.22;0.35;;;4.90;94.80;;;;;;5035558;28;20045;-72
2022/02/23 03:10:23;;;;;;;5.25;0.60;;;4.80;94.80;;;;;;5034202;28;20053;-73
2022/02/23 03:12:50;;;;;;;2.90;0.40;;;4.80;94.80;;;;;;5071262;28;20044;-72
2022/02/23 03:15:17;;;;;;;2.47;0.50;;;4.80;94.80;;;;;;5071793;28;20516;-72
2022/02/23 03:17:44;;;;;;;3.50;0.60;;;4.80;94.80;;;;;;5053892;28;20041;-72
2022/02/23 03:20:12;;;;;;;2.95;0.60;;;4.70;94.80;;;;;;5053941;28;20515;-73
2022/02/23 03:22:39;;;;;;;3.25;0.50;;;4.80;94.90;;;;;;5053956;28;20040;-73
2022/02/23 03:25:06;;;;;;;4.38;0.65;;;4.70;94.80;;;;;;5071797;28;20131;-72
2022/02/23 03:27:33;;;;;;;5.95;1.10;;;4.70;95.10;;;;;;5037151;28;20068;-73
2022/02/23 03:30:00;;;;;;;6.35;1.48;;;4.80;94.80;;;;;;5071584;28;20068;-73
2022/02/23 03:32:27;;;;;;;6.63;0.80;;;4.70;94.80;;;;;;5073691;28;20126;-73
2022/02/23 03:34:54;;;;;;;6.05;0.73;;;4.70;94.80;;;;;;5071621;28;20079;-72
2022/02/23 03:37:21;;;;;;;9.63;1.10;;;4.70;94.80;;;;;;5071535;28;20048;-72
2022/02/23 03:39:49;;;;;;;4.95;0.80;;;4.70;94.80;;;;;;5071658;28;20032;-73
2022/02/23 03:42:16;;;;;;;5.50;1.00;;;4.70;94.80;;;;;;5037258;28;20064;-73
2022/02/23 03:44:43;;;;;;;6.43;1.10;;;4.70;94.80;;;;;;5071469;28;20501;-72
2022/02/23 03:47:11;;;;;;;8.18;1.50;;;4.70;94.80;;;;;;5071610;28;20114;-72
2022/02/23 03:49:38;;;;;;;9.95;0.80;;;4.60;94.80;;;;;;5052896;28;20059;-73
2022/02/23 03:52:06;;;;;;;5.30;0.88;;;4.60;94.80;;;;;;5071632;28;20068;-72
2022/02/23 03:54:34;;;;;;;11.13;1.20;;;4.60;94.80;;;;;;5071462;28;20049;-72
2022/02/23 03:57:01;;;;;;;6.35;0.70;;;4.60;94.80;;;;;;5053412;28;20098;-72
2022/02/23 03:59:28;;;;;;;3.47;0.50;;;4.60;94.80;;;;;;5053639;28;20052;-72
2022/02/23 04:01:56;;;;;;;8.25;0.85;;;4.60;94.80;;;;;;5037203;28;20082;-73
2022/02/23 04:04:23;;;;;;;2.22;0.55;;;4.50;94.80;;;;;;5053337;28;20051;-72
2022/02/23 04:06:50;;;;;;;3.65;0.60;;;4.50;94.90;;;;;;5053240;28;20393;-73
2022/02/23 04:09:17;;;;;;;3.15;0.47;;;4.50;94.90;;;;;;5071312;28;20036;-72
2022/02/23 04:11:45;;;;;;;3.08;0.50;;;4.40;94.90;;;;;;5053141;28;20098;-72
2022/02/23 04:14:12;;;;;;;3.80;0.50;;;4.40;95.00;;;;;;5036808;28;20048;-72
2022/02/23 04:16:39;;;;;;;2.20;0.50;;;4.40;95.00;;;;;;5071176;28;20044;-72
2022/02/23 04:19:06;;;;;;;1.63;0.32;;;4.40;95.00;;;;;;5071145;28;20116;-73
2022/02/23 04:21:33;;;;;;;5.18;0.40;;;4.40;95.00;;;;;;5037053;28;20554;-72
2022/02/23 04:24:01;;;;;;;4.60;0.50;;;4.40;95.00;;;;;;5071144;28;20048;-72
2022/02/23 04:26:28;;;;;;;1.48;0.40;;;4.30;95.00;;;;;;5053428;28;20098;-73
2022/02/23 04:28:55;;;;;;;1.55;0.40;;;4.30;95.00;;;;;;5071184;28;20054;-73
2022/02/23 04:31:25;;;;;;;2.35;0.40;;;4.30;95.10;;;;;;5071182;28;20131;-72
2022/02/23 04:33:53;;;;;;;2.25;0.43;;;4.30;95.10;;;;;;5056485;28;20052;-72
2022/02/23 04:36:21;;;;;;;2.90;0.28;;;4.30;95.10;;;;;;5073029;28;20044;-72
2022/02/23 04:38:51;;;;;;;0.30;0.10;;;4.20;95.10;;;;;;5073620;28;20107;-72
2022/02/23 04:41:18;;;;;;;1.98;0.30;;;4.20;95.10;;;;;;5073146;28;20064;-72
2022/02/23 04:43:45;;;;;;;1.40;0.60;;;4.10;95.10;;;;;;5091231;28;20040;-73
2022/02/23 04:46:12;;;;;;;0.98;0.22;;;4.10;95.20;;;;;;5056911;28;20044;-72
2022/02/23 04:48:42;;;;;;;0.82;0.20;;;4.00;95.30;;;;;;5056723;28;20392;-72
2022/02/23 04:51:10;;;;;;;1.45;0.40;;;4.00;95.30;;;;;;5091079;28;20048;-73
2022/02/23 04:53:38;;;;;;;2.28;0.30;;;4.00;95.30;;;;;;5091079;28;20397;-72
2022/02/23 04:56:06;;;;;;;3.60;0.20;;;3.90;95.30;;;;;;5073167;28;20417;-72
2022/02/23 04:58:33;;;;;;;3.25;0.35;;;3.90;95.40;;;;;;5056596;28;20033;-72
2022/02/23 05:01:00;;;;;;;0.68;0.30;;;3.80;95.40;;;;;;5058493;28;20048;-72
2022/02/23 05:03:27;;;;;;;0.77;0.20;;;3.80;95.50;;;;;;5076913;28;20059;-72
2022/02/23 05:05:54;;;;;;;1.40;0.30;;;3.80;95.50;;;;;;5076365;28;20094;-72
2022/02/23 05:08:21;;;;;;;2.25;0.28;;;3.80;95.50;;;;;;5076690;28;20051;-72
2022/02/23 05:10:48;;;;;;;1.30;0.38;;;3.70;95.50;;;;;;5094659;28;20461;-73
2022/02/23 05:13:18;;;;;;;1.20;0.20;;;3.70;95.50;;;;;;5094456;28;20054;-72
2022/02/23 05:15:45;;;;;;;0.85;0.10;;;3.60;95.50;;;;;;5076509;28;20495;-72
2022/02/23 05:18:12;;;;;;;1.40;0.20;;;3.60;95.50;;;;;;5076295;28;20109;-72
2022/02/23 05:20:39;;;;;;;1.17;0.20;;;3.60;95.60;;;;;;5059622;28;20447;-73
2022/02/23 05:23:06;;;;;;;2.20;0.40;;;3.50;95.60;;;;;;5094485;28;20094;-72
2022/02/23 05:25:33;;;;;;;1.83;0.30;;;3.50;95.60;;;;;;5094300;28;20040;-72
2022/02/23 05:28:00;;;;;;;1.85;0.30;;;3.50;95.60;;;;;;5076241;28;20040;-72
2022/02/23 05:30:27;;;;;;;0.40;0.20;;;3.50;95.60;;;;;;5094125;28;20093;-73
2022/02/23 05:32:54;;;;;;;1.48;0.25;;;3.50;95.70;;;;;;5076038;28;20060;-73
2022/02/23 05:35:22;;;;;;;2.83;0.25;;;3.50;95.70;;;;;;5076271;28;20044;-73
2022/02/23 05:37:49;;;;;;;1.52;0.30;;;3.40;95.70;;;;;;5076070;28;20059;-72
2022/02/23 05:40:16;;;;;;;4.85;0.30;;;3.50;95.70;;;;;;5094054;28;20567;-73
2022/02/23 05:42:43;;;;;;;2.25;0.50;;;3.50;95.70;;;;;;5058062;28;20121;-73
2022/02/23 05:45:11;;;;;;;1.98;0.52;;;3.50;95.60;;;;;;5054708;28;20133;-73
2022/02/23 05:47:38;;;;;;;3.17;0.68;;;3.50;95.60;;;;;;5091704;28;20043;-72
2022/02/23 05:50:05;;;;;;;2.05;0.50;;;3.50;95.60;;;;;;5093952;28;20044;-72
2022/02/23 05:52:32;;;;;;;2.28;0.40;;;3.50;95.60;;;;;;5075614;28;20044;-73
2022/02/23 05:54:59;;;;;;;2.92;0.55;;;3.60;95.60;;;;;;5075750;28;20056;-72
2022/02/23 05:57:26;;;;;;;2.88;0.70;;;3.60;95.60;;;;;;5093897;28;20404;-73
2022/02/23 05:59:53;;;;;;;2.95;0.57;;;3.60;95.50;;;;;;5058917;28;20044;-72
2022/02/23 06:02:20;;;;;;;2.63;0.57;;;3.60;95.50;;;;;;5093623;28;20044;-72
2022/02/23 06:04:47;;;;;;;2.47;0.70;;;3.60;95.50;;;;;;5075203;28;20082;-73
2022/02/23 06:07:14;;;;;;;3.85;0.68;;;3.60;95.50;;;;;;5042205;28;20408;-72
2022/02/23 06:09:42;;;;;;;1.42;0.28;;;3.60;95.50;;;;;;5093674;28;20089;-72
2022/02/23 06:12:09;;;;;;;0.90;0.38;;;3.60;95.50;;;;;;5095027;28;20510;-72
2022/02/23 06:14:37;;;;;;;1.02;0.30;;;3.60;95.60;;;;;;5075910;28;20503;-72
2022/02/23 06:17:04;;;;;;;2.38;0.43;;;3.50;95.60;;;;;;5078091;28;20082;-72
2022/02/23 06:19:31;;;;;;;0.50;0.28;;;3.50;95.60;;;;;;5084413;28;20102;-73
2022/02/23 06:21:59;;;;;;;1.17;0.30;;;3.50;95.90;;;;;;5081245;28;20043;-72
2022/02/23 06:24:26;;;;;;;1.10;0.38;;;3.50;95.70;;;;;;5098401;28;20044;-77
2022/02/23 06:26:53;;;;;;;0.80;0.17;;;3.50;95.70;;;;;;5094205;28;20086;-77
2022/02/23 06:29:21;;;;;;;2.65;0.43;;;3.50;95.70;;;;;;5094182;28;20044;-77
2022/02/23 06:32:05;;;;;;;3.00;0.40;;;3.40;95.70;;;;;;5059055;28;20040;-77
2022/02/23 06:34:33;;;;;;;2.15;0.40;;;3.50;95.70;;;;;;5055848;28;20487;-77
2022/02/23 06:37:03;;;;;;;2.75;0.30;;;3.40;95.70;;;;;;5055795;28;20474;-77
2022/02/23 06:39:31;;;;;;;1.08;0.40;;;3.40;95.70;;;;;;5056012;28;20547;-77
2022/02/23 06:42:01;;;;;;;1.55;0.47;;;3.30;95.70;;;;;;5039156;28;20051;-77
2022/02/23 06:44:29;;;;;;;2.10;0.40;;;3.40;95.80;;;;;;5056001;28;20071;-77
2022/02/23 06:46:59;;;;;;;1.98;0.40;;;3.40;95.80;;;;;;5055890;28;20039;-77
2022/02/23 06:49:31;;;;;;;2.70;0.40;;;3.30;95.80;;;;;;5073623;28;20539;-77
2022/02/23 06:52:00;;;;;;;1.40;0.30;;;3.30;95.80;;;;;;5073577;28;20052;-77
2022/02/23 06:54:29;;;;;;;1.55;0.57;;;3.30;95.80;;;;;;5056332;28;20044;-77
2022/02/23 06:56:56;;;;;;;1.40;0.30;;;3.30;95.90;;;;;;5073651;28;20064;-77
2022/02/23 06:59:24;;;;;;;1.40;0.40;;;3.30;95.90;;;;;;5056072;28;20123;-77
2022/02/23 07:01:51;;;;;;;0.90;0.35;;;3.30;95.90;;;;;;5073445;28;20063;-77
2022/02/23 07:04:18;;;;;;;0.93;0.28;;;3.30;95.90;;;;;;5073456;28;20098;-77
2022/02/23 07:06:45;;;;;;;2.38;0.45;;;3.30;95.90;;;;;;5073473;28;20064;-77
2022/02/23 07:09:12;;;;;;;2.38;0.47;;;3.40;95.90;;;;;;5039187;28;20062;-77
2022/02/23 07:11:39;;;;;;;1.45;0.30;;;3.40;95.90;;;;;;5073073;28;20083;-77
2022/02/23 07:14:08;;;;;;;1.63;0.20;;;3.50;95.80;;;;;;5035888;28;20044;-77
2022/02/23 07:16:37;;;;;;;0.60;0.30;;;3.50;95.80;;;;;;5035417;28;20515;-77
2022/02/23 07:19:05;;;;;;;2.15;0.30;;;3.50;95.80;;;;;;5035182;28;20401;-77
2022/02/23 07:21:34;;;;;;;1.58;0.30;;;3.50;95.80;;;;;;5024055;28;20139;-78
2022/02/23 07:24:02;;;;;;;1.33;0.40;;;3.50;95.80;;;;;;5073330;28;20036;-81
2022/02/23 07:26:29;;;;;;;1.58;0.35;;;3.60;95.90;;;;;;5004316;28;20051;-79
2022/02/23 07:28:57;;;;;;;1.95;0.40;;;3.60;95.90;;;;;;5055040;28;20040;-79
2022/02/23 07:31:25;;;;;;;1.75;0.50;;;3.60;95.90;;;;;;5038401;28;20049;-79
2022/02/23 07:33:52;;;;;;;1.05;0.30;;;3.70;95.90;;;;;;5072492;28;20444;-79
2022/02/23 07:36:19;;;;;;;1.23;0.32;;;3.70;95.90;;;;;;5058284;28;20075;-79
2022/02/23 07:38:47;;;;;;;2.40;0.55;;;3.70;95.90;;;;;;5074955;28;20044;-74
2022/02/23 07:41:22;;;;;;;1.52;0.30;;;3.80;96.10;;;;;;5074052;28;20376;-79
2022/02/23 07:44:09;;;;;;;0.70;0.30;;;3.90;95.80;;;;;;5047351;28;20464;-72
2022/02/23 07:46:36;;;;;;;3.25;0.50;;;3.90;95.80;;;;;;5091962;28;20033;-74
2022/02/23 07:49:04;;;;;;;4.32;1.58;;;4.00;95.80;;;;;;5057181;28;20440;-75
2022/02/23 07:51:31;;;;;;;2.83;0.47;;;4.00;95.70;;;;;;5073982;28;20086;-74
2022/02/23 07:53:58;;;;;;;2.35;0.40;;;4.00;95.70;;;;;;5057987;28;20052;-79
2022/02/23 07:56:26;;;;;;;3.33;0.80;;;4.10;96.00;;;;;;5058059;28;20044;-80
2022/02/23 07:58:53;;;;;;;4.53;0.73;;;4.10;95.70;;;;;;5074711;28;20506;-79
2022/02/23 08:01:34;;;;;;;2.63;0.50;;;4.20;95.60;;;;;;5057681;28;20056;-79
2022/02/23 08:04:02;;;;;;;3.45;0.95;;;4.30;95.60;;;;;;5075866;28;20040;-77
2022/02/23 08:06:29;;;;;;;4.10;1.00;;;4.30;95.60;;;;;;5074621;28;20048;-77
2022/02/23 08:08:56;;;;;;;2.40;0.60;;;4.40;95.60;;;;;;5074567;28;20040;-77
2022/02/23 08:11:24;;;;;;;2.78;0.75;;;4.40;95.50;;;;;;5092504;28;20404;-79
2022/02/23 08:13:59;;;;;;;2.50;0.60;;;4.50;95.50;;;;;;5074750;28;20047;-79
2022/02/23 08:21:59;;;;;;;3.47;0.70;;;4.60;95.50;;;;;;5074346;28;20390;-79
2022/02/23 08:24:27;;;;;;;4.25;0.90;;;4.70;95.50;;;;;;5074538;28;20040;-79
2022/02/23 08:26:56;;;;;;;2.05;0.70;;;4.70;95.50;;;;;;5092667;28;20114;-79
2022/02/23 08:29:24;;;;;;;7.85;1.65;;;4.80;95.40;;;;;;5092551;28;20435;-79
2022/02/23 08:31:52;;;;;;;5.60;1.27;;;4.90;95.40;;;;;;5056651;28;20051;-78
2022/02/23 08:34:20;;;;;;;5.78;1.63;;;5.00;95.40;;;;;;5072155;28;20044;-79
2022/02/23 08:36:47;;;;;;;5.05;0.90;;;5.00;95.40;;;;;;5058418;28;20495;-78
2022/02/23 08:39:15;;;;;;;6.07;1.55;;;5.10;95.40;;;;;;5058415;28;20064;-78
2022/02/23 08:41:44;;;;;;;5.13;0.98;;;5.10;95.30;;;;;;5058264;28;20037;-79
2022/02/23 08:44:19;;;;;;;7.28;1.52;;;5.20;95.30;;;;;;5059781;28;20032;-79
2022/02/23 08:46:47;;;;;;;4.32;1.00;;;5.30;95.30;;;;;;5076031;28;20094;-79
2022/02/23 08:49:15;;;;;;;5.28;0.95;;;5.30;95.30;;;;;;5041709;28;20132;-79
2022/02/23 08:51:44;;;;;;;5.30;1.20;;;5.40;95.30;;;;;;5058177;28;20044;-78
2022/02/23 08:54:12;;;;;;;5.90;1.20;;;5.50;95.20;;;;;;5041820;28;20074;-78
2022/02/23 08:56:39;;;;;;;3.25;0.90;;;5.50;95.20;;;;;;5057981;28;20169;-78
2022/02/23 08:59:07;;;;;;;4.55;1.42;;;5.60;95.10;;;;;;5041465;28;20048;-78
2022/02/23 09:01:34;;;;;;;6.80;1.40;;;5.70;95.20;;;;;;5041233;28;20060;-78
2022/02/23 09:04:02;;;;;;;5.15;1.17;;;5.70;95.20;;;;;;5075277;28;20052;-74
2022/02/23 09:06:34;;;;;;;4.55;1.33;;;5.80;95.10;;;;;;5056828;28;20218;-72
2022/02/23 09:09:06;;;;;;;3.55;1.27;;;5.90;95.10;;;;;;5074445;28;20123;-72
2022/02/23 09:11:34;;;;;;;3.60;0.87;;;5.90;95.10;;;;;;5078307;28;20094;-72
2022/02/23 09:14:02;;;;;;;6.15;1.50;;;6.00;95.00;;;;;;5076615;28;20113;-71
2022/02/23 09:16:30;;;;;;;4.68;1.45;;;6.00;95.00;;;;;;5075334;28;20067;-74
2022/02/23 09:18:58;;;;;;;7.82;1.95;;;6.10;95.00;;;;;;5057901;28;20055;-75
2022/02/23 09:21:25;;;;;;;7.25;1.75;;;6.20;94.90;;;;;;5040699;28;20064;-74
2022/02/23 09:23:52;;;;;;;8.48;2.13;;;6.30;94.90;;;;;;5056504;28;20505;-74
2022/02/23 09:26:19;;;;;;;6.47;1.88;;;6.30;94.80;;;;;;5055966;28;20070;-74
2022/02/23 09:28:47;;;;;;;6.70;1.92;;;6.40;94.80;;;;;;5056322;28;20060;-74
2022/02/23 09:31:15;;;;;;;5.53;1.95;;;6.40;94.70;;;;;;5039691;28;20074;-74
2022/02/23 09:33:42;;;;;;;6.53;1.42;;;6.50;94.70;;;;;;5072372;28;20648;-78
2022/02/23 09:36:14;;;;;;;6.87;1.60;;;6.50;94.70;;;;;;5077140;28;20131;-79
2022/02/23 09:38:41;;;;;;;5.00;1.83;;;6.50;94.70;;;;;;5060335;28;20048;-73
2022/02/23 09:41:10;;;;;;;7.95;2.05;;;6.60;94.70;;;;;;5076121;28;20043;-74
2022/02/23 09:43:38;;;;;;;7.82;2.47;;;6.70;94.60;;;;;;5059393;28;20044;-74
2022/02/23 09:46:08;;;;;;;9.80;2.90;;;6.70;94.50;;;;;;5093601;28;20060;-74
2022/02/23 09:48:40;;;;;;;7.60;2.42;;;6.80;94.50;;;;;;5076039;28;20429;-74
2022/02/23 09:51:11;;;;;;;7.13;2.45;;;6.90;94.40;;;;;;5060108;28;20118;-74
2022/02/23 09:53:45;;;;;;;8.65;2.25;;;7.00;94.30;;;;;;5059191;28;20040;-74
2022/02/23 09:56:14;;;;;;;11.35;3.10;;;7.00;94.30;;;;;;5060729;28;20044;-78
2022/02/23 09:58:42;;;;;;;5.78;2.30;;;7.10;94.20;;;;;;5077025;28;20044;-78
2022/02/23 10:01:13;;;;;;;6.22;2.33;;;7.20;94.20;;;;;;5077119;28;20067;-79
2022/02/23 10:03:44;;;;;;;10.52;3.13;;;7.30;94.10;;;;;;5060617;28;20085;-79
2022/02/23 10:06:43;;;;;;;8.32;2.90;;;7.30;94.00;;;;;;5076893;28;20067;-79
2022/02/23 10:09:13;;;;;;;9.85;2.72;;;7.50;93.80;;;;;;5042615;28;20040;-78
2022/02/23 10:11:42;;;;;;;9.57;3.03;;;7.50;93.70;;;;;;5076809;28;20798;-78
2022/02/23 10:14:11;;;;;;;9.38;3.25;;;7.60;93.60;;;;;;5077355;28;20101;-77
2022/02/23 10:16:41;;;;;;;9.07;4.10;;;7.60;93.50;;;;;;5046478;28;20048;-77
2022/02/23 10:19:09;;;;;;;8.15;3.55;;;7.70;93.40;;;;;;5074076;28;20086;-77
2022/02/23 10:21:50;;;;;;;10.93;3.53;;;7.70;93.40;;;;;;5056089;28;20041;-77
2022/02/23 10:24:38;;;;;;;8.00;3.70;;;7.70;93.40;;;;;;5073852;28;20059;-77
2022/02/23 10:27:09;;;;;;;10.73;3.63;;;7.80;93.70;;;;;;5039860;28;20040;-77
2022/02/23 10:29:47;;;;;;;10.80;4.20;;;7.80;93.30;;;;;;5072866;28;20068;-72
2022/02/23 10:32:17;;;;;;;10.23;3.97;;;7.80;93.30;;;;;;5068195;28;20049;-72
2022/02/23 10:34:46;;;;;;;8.48;3.22;;;7.90;93.30;;;;;;5052734;28;20567;-72
2022/02/23 10:37:17;;;;;;;11.68;4.57;;;7.90;93.30;;;;;;5052730;28;20550;-72
2022/02/23 10:39:48;;;;;;;11.38;4.65;;;8.00;93.30;;;;;;5052527;28;20045;-72
2022/02/23 10:42:24;;;;;;;11.32;4.15;;;8.00;93.00;;;;;;5052709;28;20452;-72
2022/02/23 10:44:51;;;;;;;;;;;8.00;92.80;;;;;;5035213;28;20029;-73
2022/02/23 10:47:24;;;;;;;12.48;4.07;;;8.00;92.90;;;;;;5034660;28;19947;-73
2022/02/23 10:50:17;;;;;;;8.25;3.90;;;8.00;93.00;;;;;;5052473;28;20451;-72
2022/02/23 10:52:56;;;;;;;5.57;3.25;;;8.10;92.80;;;;;;5052281;28;20049;-72
2022/02/23 10:55:30;;;;;;;7.15;3.10;;;8.10;92.80;;;;;;5052234;28;20079;-73
2022/02/23 10:58:03;;;;;;;6.28;2.97;;;8.20;92.80;;;;;;5034698;28;20115;-72
2022/02/23 11:00:39;;;;;;;7.75;4.50;;;8.30;92.70;;;;;;5052192;28;20037;-73
2022/02/23 11:03:14;;;;;;;6.45;2.90;;;8.30;92.50;;;;;;5032232;28;20541;-73
2022/02/23 11:05:43;;;;;;;8.70;2.65;;;8.40;92.50;;;;;;5018821;28;20077;-73
2022/02/23 11:08:14;;;;;;;7.65;2.95;;;8.50;92.40;;;;;;5051855;28;20444;-73
2022/02/23 11:10:43;;;;;;;6.82;2.15;;;8.50;92.40;;;;;;5033726;28;20110;-72
2022/02/23 11:13:12;;;;;;;5.13;1.75;;;8.50;92.30;;;;;;5051694;28;20122;-72
2022/02/23 11:15:45;;;;;;;10.23;2.92;;;8.60;92.40;;;;;;5051554;28;20052;-73
2022/02/23 11:18:15;;;;;;;12.20;3.40;;;8.70;92.00;;;;;;5051877;28;20052;-73
2022/02/23 11:20:52;;;;;;;6.40;2.10;;;8.70;91.50;;;;;;5034243;28;20045;-73
2022/02/23 11:23:24;;;;;;;8.15;3.30;;;8.80;91.40;;;;;;5052034;28;20078;-73
2022/02/23 11:25:53;;;;;;;9.13;2.87;;;8.80;91.00;;;;;;5034295;28;20040;-73
2022/02/23 11:28:35;;;;;;;5.10;1.75;;;8.90;91.00;;;;;;5051790;28;20276;-73
2022/02/23 11:31:06;;;;;;;6.18;1.35;;;9.00;91.10;;;;;;5051866;28;20037;-72
2022/02/23 11:33:58;;;;;;;5.05;1.27;;;8.90;91.20;;;;;;5048827;28;20105;-72
2022/02/23 11:36:39;;;;;;;4.60;1.50;;;9.00;91.10;;;;;;5071786;28;20076;-73
2022/02/23 11:39:29;;;;;;;6.65;1.65;;;9.10;91.10;;;;;;5071715;28;20074;-72
2022/02/23 11:42:03;;;;;;;5.22;1.20;;;9.10;90.80;;;;;;5054112;28;20087;-72
2022/02/23 11:44:38;;;;;;;5.40;1.58;;;9.20;90.40;;;;;;5053907;28;20571;-73
2022/02/23 11:47:21;;;;;;;6.85;1.23;;;9.30;90.20;;;;;;5054232;28;20068;-73
2022/02/23 11:50:07;;;;;;;5.43;0.93;;;9.30;90.00;;;;;;5071628;28;20040;-73
2022/02/23 11:52:46;;;;;;;6.47;1.35;;;9.30;89.80;;;;;;5037103;28;20511;-72
2022/02/23 11:55:16;;;;;;;5.32;1.55;;;9.40;89.70;;;;;;5071494;28;20071;-72
2022/02/23 11:57:58;;;;;;;4.80;0.90;;;9.40;89.90;;;;;;5053668;28;20044;-73
2022/02/23 12:00:29;;;;;;;3.47;1.10;;;9.50;89.00;;;;;;5071496;28;20641;-72
2022/02/23 12:03:00;;;;;;;3.47;0.93;;;9.50;88.70;;;;;;5053911;28;20037;-73
2022/02/23 12:05:41;;;;;;;4.93;1.38;;;9.50;88.40;;;;;;5037046;28;20048;-72
2022/02/23 12:08:37;;;;;;;4.47;1.00;;;9.60;88.20;;;;;;5071341;28;20041;-72
2022/02/23 12:11:13;;;;;;;4.63;0.80;;;9.70;88.10;;;;;;5056150;28;20558;-72
2022/02/23 12:13:44;;;;;;;3.20;0.70;;;9.70;88.10;;;;;;5040920;28;20045;-73
2022/02/23 12:16:30;;;;;;;7.07;0.75;;;9.70;88.00;;;;;;5075513;28;20047;-75
2022/02/23 12:19:03;;;;;;;4.57;0.80;;;9.80;88.00;;;;;;5057730;28;20079;-73
2022/02/23 12:21:41;;;;;;;4.90;1.13;;;9.90;87.20;;;;;;5075066;28;20083;-72
2022/02/23 12:24:23;;;;;;;8.50;0.82;;;9.90;86.80;;;;;;5075423;28;20518;-72
2022/02/23 12:26:56;;;;;;;4.25;1.08;;;10.00;86.70;;;;;;5075079;28;20032;-73
2022/02/23 12:29:28;;;;;;;5.30;0.65;;;10.00;86.50;;;;;;5074770;28;20070;-73
2022/02/23 12:32:06;;;;;;;4.97;1.02;;;10.00;86.90;;;;;;5060556;28;20059;-73
2022/02/23 12:34:35;;;;;;;3.53;0.70;;;10.10;86.20;;;;;;5077301;28;20076;-74
2022/02/23 12:37:24;;;;;;;4.85;1.00;;;10.10;86.40;;;;;;5080396;28;20121;-72
2022/02/23 12:39:53;;;;;;;6.57;1.33;;;10.10;84.80;;;;;;5095236;28;20051;-73
2022/02/23 12:42:26;;;;;;;5.68;0.80;;;10.20;84.50;;;;;;5095343;28;20101;-73
2022/02/23 12:44:53;;;;;;;8.82;1.40;;;10.30;84.30;;;;;;5072406;28;20044;-72
2022/02/23 12:47:55;;;;;;;7.63;1.40;;;10.30;84.30;;;;;;5046282;28;20480;-73
2022/02/23 12:50:27;;;;;;;6.80;1.10;;;10.50;83.30;;;;;;5074927;28;20121;-73
2022/02/23 12:52:55;;;;;;;4.55;1.15;;;10.50;83.70;;;;;;5057028;28;20051;-72
2022/02/23 12:55:22;;;;;;;6.82;1.10;;;10.50;84.00;;;;;;5057153;28;20037;-72
2022/02/23 12:57:52;;;;;;;4.20;0.82;;;10.50;83.30;;;;;;5040152;28;20044;-73
2022/02/23 13:00:25;;;;;;;5.75;1.30;;;10.60;82.80;;;;;;5040784;28;20040;-72
2022/02/23 13:02:52;;;;;;;3.92;0.55;;;10.60;82.70;;;;;;5074620;28;20090;-72
2022/02/23 13:05:21;;;;;;;4.72;0.75;;;10.70;82.50;;;;;;5056340;28;20499;-73
2022/02/23 13:07:48;;;;;;;5.10;0.82;;;10.80;82.20;;;;;;5056874;28;20451;-73
2022/02/23 13:10:15;;;;;;;3.88;0.60;;;10.80;82.40;;;;;;5056593;28;20102;-72
2022/02/23 13:12:45;;;;;;;4.38;0.82;;;10.90;81.70;;;;;;5074476;28;20033;-73